createdAt,value
2019-05-11T00:04:55.259Z,2.80
2019-05-11T00:09:58.800Z,2.58
2019-05-11T00:15:02.079Z,3.40
2019-05-11T00:20:06.854Z,2.90
2019-05-11T00:25:10.226Z,3.58
2019-05-11T00:30:13.978Z,2.15
2019-05-11T00:35:17.378Z,2.20
2019-05-11T00:40:20.671Z,2.42
2019-05-11T00:45:24.088Z,3.77
2019-05-11T00:50:38.855Z,2.15
2019-05-11T00:55:32.643Z,3.08
2019-05-11T01:00:36.057Z,2.50
2019-05-11T01:05:39.481Z,2.20
2019-05-11T01:10:42.932Z,2.58
2019-05-11T01:15:46.297Z,2.98
2019-05-11T01:20:49.699Z,2.27
2019-05-11T01:25:53.116Z,2.62
2019-05-11T01:30:56.528Z,2.80
2019-05-11T01:35:59.938Z,2.30
2019-05-11T01:41:03.349Z,2.15
2019-05-11T01:46:06.678Z,1.85
2019-05-11T01:51:10.072Z,2.05
2019-05-11T01:56:13.491Z,2.12
2019-05-11T02:01:16.999Z,2.75
2019-05-11T02:06:20.409Z,2.40
2019-05-11T02:11:23.820Z,1.95
2019-05-11T02:16:27.239Z,2.05
2019-05-11T02:21:30.644Z,1.85
2019-05-11T02:26:34.049Z,1.95
2019-05-11T02:31:37.424Z,2.40
2019-05-11T02:36:40.779Z,1.70
2019-05-11T02:41:44.183Z,2.65
2019-05-11T02:46:47.597Z,1.57
2019-05-11T02:51:51.017Z,2.12
2019-05-11T02:56:54.416Z,1.85
2019-05-11T03:01:57.833Z,1.75
2019-05-11T03:07:01.170Z,2.83
2019-05-11T03:12:04.663Z,1.62
2019-05-11T03:17:15.751Z,1.80
2019-05-11T03:22:19.079Z,1.98
2019-05-11T03:27:22.478Z,3.27
2019-05-11T03:32:25.896Z,1.75
2019-05-11T03:37:29.288Z,2.22
2019-05-11T03:42:32.710Z,2.08
2019-05-11T03:47:36.010Z,1.77
2019-05-11T03:52:39.315Z,2.02
2019-05-11T03:57:42.632Z,1.70
2019-05-11T04:02:45.954Z,1.50
2019-05-11T04:07:49.353Z,1.52
2019-05-11T04:12:52.766Z,2.40
2019-05-11T04:17:56.172Z,1.60
2019-05-11T04:22:59.589Z,2.05
2019-05-11T04:28:03.007Z,1.50
2019-05-11T04:33:06.493Z,1.65
2019-05-11T04:38:09.927Z,1.95
2019-05-11T04:43:13.233Z,2.12
2019-05-11T04:48:16.646Z,1.40
2019-05-11T04:53:20.058Z,1.17
2019-05-11T04:58:23.568Z,1.70
2019-05-11T05:03:39.830Z,1.50
2019-05-11T05:08:32.865Z,1.77
2019-05-11T05:13:36.261Z,1.10
2019-05-11T05:18:39.676Z,2.45
2019-05-11T05:23:43.057Z,1.42
2019-05-11T05:28:46.399Z,1.95
2019-05-11T05:33:49.813Z,0.98
2019-05-11T05:38:53.112Z,1.72
2019-05-11T05:43:56.529Z,1.32
2019-05-11T05:48:59.924Z,1.35
2019-05-11T05:54:03.352Z,1.20
2019-05-11T05:59:06.767Z,1.98
2019-05-11T06:04:10.169Z,3.25
2019-05-11T06:09:13.586Z,4.83
2019-05-11T06:14:16.998Z,2.30
2019-05-11T06:19:20.410Z,1.55
2019-05-11T06:24:23.749Z,3.30
2019-05-11T06:29:27.130Z,3.58
2019-05-11T06:34:30.542Z,3.87
2019-05-11T06:39:33.854Z,8.35
2019-05-11T06:44:37.261Z,4.42
2019-05-11T06:49:40.572Z,2.98
2019-05-11T06:54:43.978Z,7.15
2019-05-11T06:59:47.395Z,8.85
2019-05-11T07:04:50.733Z,11.18
2019-05-11T07:09:54.119Z,8.38
2019-05-11T07:14:57.531Z,5.65
2019-05-11T07:20:00.958Z,15.05
2019-05-11T07:25:07.740Z,23.50
2019-05-11T07:30:11.139Z,26.77
2019-05-11T07:35:14.552Z,30.37
2019-05-11T07:40:18.719Z,25.85
2019-05-11T07:45:22.351Z,24.92
2019-05-11T07:50:28.159Z,26.17
2019-05-11T07:55:30.864Z,22.85
2019-05-11T08:00:36.506Z,22.00
2019-05-11T08:05:39.428Z,22.20
2019-05-11T08:17:15.442Z,22.50
2019-05-11T08:22:22.720Z,18.40
2019-05-11T08:27:24.013Z,20.27
2019-05-11T08:32:28.665Z,20.90
2019-05-11T08:37:32.260Z,18.57
2019-05-11T08:42:37.893Z,19.10
2019-05-11T08:47:40.772Z,16.10
2019-05-11T08:52:44.136Z,17.57
2019-05-11T09:05:12.787Z,15.75
2019-05-11T09:10:18.353Z,18.30
2019-05-11T09:15:33.666Z,17.07
2019-05-11T09:20:28.471Z,13.48
2019-05-11T09:25:31.589Z,13.88
2019-05-11T09:30:34.908Z,20.12
2019-05-11T09:35:47.665Z,20.82
2019-05-11T09:40:43.407Z,21.85
2019-05-11T09:45:49.304Z,18.90
2019-05-11T09:50:52.660Z,23.15
2019-05-11T09:55:58.512Z,20.40
2019-05-11T10:01:01.162Z,26.37
2019-05-11T10:06:04.524Z,19.42
2019-05-11T10:11:08.490Z,25.55
2019-05-11T10:16:11.858Z,27.73
2019-05-11T10:21:15.320Z,28.55
2019-05-11T10:26:19.049Z,26.42
2019-05-11T10:31:22.450Z,30.17
2019-05-11T10:36:27.864Z,27.52
2019-05-11T10:41:30.845Z,28.73
2019-05-11T10:46:34.169Z,26.45
2019-05-11T10:51:38.281Z,29.25
2019-05-11T10:56:41.818Z,29.23
2019-05-11T11:01:45.151Z,25.48
2019-05-11T11:06:48.711Z,32.50
2019-05-11T11:11:52.122Z,27.55
2019-05-11T11:16:55.467Z,24.70
2019-05-11T11:22:17.706Z,23.15
2019-05-11T11:27:03.891Z,23.55
2019-05-11T11:32:08.059Z,27.73
2019-05-11T11:37:11.457Z,22.93
2019-05-11T11:42:14.797Z,20.17
2019-05-11T11:47:21.317Z,25.88
2019-05-11T11:52:23.146Z,27.55
2019-05-11T11:57:28.265Z,20.45
2019-05-11T12:02:31.537Z,21.85
2019-05-11T12:07:34.900Z,23.52
2019-05-11T12:12:38.747Z,26.70
2019-05-11T12:17:42.366Z,23.98
2019-05-11T12:22:47.621Z,24.27
2019-05-11T12:27:50.790Z,25.17
2019-05-11T12:32:54.124Z,21.73
2019-05-11T12:37:58.719Z,22.20
2019-05-11T12:43:02.217Z,25.02
2019-05-11T12:48:05.577Z,24.07
2019-05-11T12:53:08.936Z,20.88
2019-05-11T12:58:12.287Z,29.12
2019-05-11T13:03:15.616Z,25.40
2019-05-11T13:08:18.932Z,26.05
2019-05-11T13:13:22.524Z,26.00
2019-05-11T13:18:27.874Z,18.82
2019-05-11T13:23:30.955Z,23.85
2019-05-11T13:28:34.333Z,27.52
2019-05-11T13:33:38.446Z,23.65
2019-05-11T13:38:41.881Z,23.67
2019-05-11T13:43:45.252Z,22.90
2019-05-11T13:48:48.606Z,20.85
2019-05-11T13:53:51.963Z,27.60
2019-05-11T13:58:57.913Z,22.75
2019-05-11T14:04:01.283Z,25.45
2019-05-11T14:09:07.815Z,21.00
2019-05-11T14:14:11.215Z,16.67
2019-05-11T14:19:14.563Z,23.25
2019-05-11T14:24:18.502Z,17.87
2019-05-11T14:29:22.022Z,19.50
2019-05-11T14:34:25.416Z,22.35
2019-05-11T14:39:28.824Z,17.73
2019-05-11T14:44:32.138Z,23.35
2019-05-11T14:49:37.703Z,27.15
2019-05-11T14:54:40.584Z,23.22
2019-05-11T14:59:43.934Z,22.82
2019-05-11T15:04:48.416Z,34.35
2019-05-11T15:09:51.768Z,62.95
2019-05-11T15:14:55.093Z,45.60
2019-05-11T15:19:58.413Z,53.87
2019-05-11T15:25:01.738Z,39.80
2019-05-11T15:30:08.021Z,45.58
2019-05-11T15:35:11.157Z,27.75
2019-05-11T15:40:14.742Z,26.30
2019-05-11T15:45:18.806Z,30.12
2019-05-11T15:50:22.183Z,33.00
2019-05-11T15:55:27.641Z,26.27
2019-05-11T16:00:30.601Z,27.90
2019-05-11T16:05:33.973Z,30.92
2019-05-11T16:10:38.406Z,27.60
2019-05-11T16:15:41.918Z,27.42
2019-05-11T16:20:45.218Z,33.18
2019-05-11T16:25:49.006Z,28.42
2019-05-11T16:30:52.336Z,24.85
2019-05-11T16:35:58.019Z,24.05
2019-05-11T16:41:00.697Z,21.60
2019-05-11T16:46:03.994Z,18.27
2019-05-11T16:51:08.600Z,22.73
2019-05-11T16:56:12.211Z,22.73
2019-05-11T17:01:15.515Z,16.52
2019-05-11T17:06:19.714Z,20.10
2019-05-11T17:11:23.193Z,15.35
2019-05-11T17:16:28.488Z,17.70
2019-05-11T17:21:56.326Z,10.90
2019-05-11T17:26:59.678Z,13.93
2019-05-11T17:32:03.068Z,15.58
2019-05-11T17:37:08.828Z,12.40
2019-05-11T17:42:11.484Z,16.55
2019-05-11T17:47:14.807Z,13.38
2019-05-11T17:52:18.950Z,12.47
2019-05-11T17:57:23.033Z,13.85
2019-05-11T18:02:28.748Z,12.28
2019-05-11T18:07:31.478Z,11.65
2019-05-11T18:12:34.903Z,16.90
2019-05-11T18:17:38.216Z,10.20
2019-05-11T18:22:41.525Z,14.90
2019-05-11T18:27:44.832Z,12.45
2019-05-11T18:32:49.044Z,14.90
2019-05-11T18:37:52.730Z,14.30
2019-05-11T18:42:57.840Z,15.90
2019-05-11T18:48:01.298Z,11.38
2019-05-11T18:53:04.655Z,14.10
2019-05-11T18:58:08.002Z,13.35
2019-05-11T19:03:11.332Z,13.30
2019-05-11T19:08:14.651Z,12.28
2019-05-11T19:13:17.974Z,9.95
2019-05-11T19:18:21.310Z,12.98
2019-05-11T19:23:24.621Z,9.78
2019-05-11T19:28:28.279Z,12.18
2019-05-11T19:33:31.642Z,9.03
2019-05-11T19:38:35.048Z,7.83
2019-05-11T19:43:38.449Z,10.93
2019-05-11T19:48:41.782Z,10.93
2019-05-11T19:53:45.119Z,7.97
2019-05-11T19:58:48.625Z,9.20
2019-05-11T20:03:51.965Z,10.48
2019-05-11T20:08:55.304Z,7.17
2019-05-11T20:13:59.087Z,9.68
2019-05-11T20:19:02.480Z,5.12
2019-05-11T20:24:08.335Z,7.22
2019-05-11T20:29:10.968Z,13.22
2019-05-11T20:34:14.318Z,6.53
2019-05-11T20:39:17.989Z,9.00
2019-05-11T20:44:21.381Z,7.67
2019-05-11T20:49:24.772Z,8.43
2019-05-11T20:54:28.272Z,8.28
2019-05-11T20:59:31.576Z,6.20
2019-05-11T21:04:34.860Z,6.20
2019-05-11T21:09:38.152Z,4.67
2019-05-11T21:14:42.130Z,8.30
2019-05-11T21:19:47.769Z,6.97
2019-05-11T21:24:50.516Z,5.33
2019-05-11T21:29:53.868Z,5.22
2019-05-11T21:34:58.417Z,8.70
2019-05-11T21:40:02.185Z,6.20
2019-05-11T21:45:08.403Z,6.55
2019-05-11T21:50:11.883Z,6.35
2019-05-11T21:55:15.224Z,8.40
2019-05-11T22:00:18.956Z,4.17
2019-05-11T22:05:22.381Z,6.15
2019-05-11T22:10:28.099Z,7.25
2019-05-11T22:15:31.074Z,7.97
2019-05-11T22:20:34.395Z,8.43
2019-05-11T22:25:38.345Z,7.25
2019-05-11T22:30:41.761Z,5.58
2019-05-11T22:35:45.061Z,7.25
2019-05-11T22:40:48.821Z,5.65
2019-05-11T22:45:52.178Z,8.10
2019-05-11T22:50:55.495Z,4.30
2019-05-11T22:55:58.794Z,6.92
2019-05-11T23:01:02.087Z,5.45
2019-05-11T23:06:05.401Z,5.83
2019-05-11T23:11:10.564Z,5.28
2019-05-11T23:16:13.741Z,3.45
2019-05-11T23:21:17.059Z,6.62
2019-05-11T23:26:20.356Z,5.37
2019-05-11T23:31:23.736Z,5.83
2019-05-11T23:36:27.972Z,4.10
2019-05-11T23:41:31.619Z,6.53
2019-05-11T23:46:34.944Z,6.28
2019-05-11T23:51:38.833Z,5.17
2019-05-11T23:56:42.195Z,6.20
